sensor_id;sensor_type;location;lat;lon;timestamp;P1;durP1;ratioP1;P2;durP2;ratioP2
71821;SDS011;64096;52.548;13.406;2024-03-02T06:02:30;29.00;;;22.55;;
71821;SDS011;64096;52.548;13.406;2024-03-02T06:04:56;28.75;;;23.10;;
71821;SDS011;64096;52.548;13.406;2024-03-02T06:07:22;28.77;;;22.75;;
71821;SDS011;64096;52.548;13.406;2024-03-02T06:09:48;29.70;;;24.38;;
71821;SDS011;64096;52.548;13.406;2024-03-02T06:12:16;29.65;;;24.33;;
71821;SDS011;64096;52.548;13.406;2024-03-02T06:14:43;29.52;;;24.08;;
71821;SDS011;64096;52.548;13.406;2024-03-02T06:17:09;30.17;;;23.77;;
71821;SDS011;64096;52.548;13.406;2024-03-02T06:19:35;29.05;;;23.73;;
71821;SDS011;64096;52.548;13.406;2024-03-02T06:22:01;28.35;;;23.95;;
71821;SDS011;64096;52.548;13.406;2024-03-02T06:24:27;30.88;;;24.88;;
71821;SDS011;64096;52.548;13.406;2024-03-02T06:26:53;32.17;;;25.65;;
71821;SDS011;64096;52.548;13.406;2024-03-02T06:29:19;32.78;;;24.63;;
71821;SDS011;64096;52.548;13.406;2024-03-02T06:31:45;30.30;;;24.35;;
71821;SDS011;64096;52.548;13.406;2024-03-02T06:34:11;29.05;;;24.50;;
71821;SDS011;64096;52.548;13.406;2024-03-02T06:36:38;30.17;;;24.50;;
71821;SDS011;64096;52.548;13.406;2024-03-02T06:39:05;27.77;;;22.88;;
71821;SDS011;64096;52.548;13.406;2024-03-02T06:41:31;32.28;;;23.75;;
71821;SDS011;64096;52.548;13.406;2024-03-02T06:43:57;28.52;;;24.10;;
71821;SDS011;64096;52.548;13.406;2024-03-02T06:46:27;31.70;;;24.30;;
71821;SDS011;64096;52.548;13.406;2024-03-02T06:48:54;31.52;;;24.55;;
71821;SDS011;64096;52.548;13.406;2024-03-02T06:51:20;27.50;;;22.17;;
71821;SDS011;64096;52.548;13.406;2024-03-02T06:53:46;28.13;;;22.45;;
71821;SDS011;64096;52.548;13.406;2024-03-02T06:56:12;27.60;;;21.92;;
71821;SDS011;64096;52.548;13.406;2024-03-02T06:58:38;28.50;;;23.15;;
71821;SDS011;64096;52.548;13.406;2024-03-02T07:01:04;30.17;;;23.98;;
71821;SDS011;64096;52.548;13.406;2024-03-02T07:03:30;31.50;;;24.73;;
71821;SDS011;64096;52.548;13.406;2024-03-02T07:05:57;31.30;;;24.00;;
71821;SDS011;64096;52.548;13.406;2024-03-02T07:08:23;33.88;;;26.38;;
71821;SDS011;64096;52.548;13.406;2024-03-02T07:10:50;31.60;;;25.15;;
71821;SDS011;64096;52.548;13.406;2024-03-02T07:13:16;30.33;;;25.10;;
71821;SDS011;64096;52.548;13.406;2024-03-02T07:15:42;33.63;;;25.30;;
71821;SDS011;64096;52.548;13.406;2024-03-02T07:18:29;33.15;;;25.42;;
71821;SDS011;64096;52.548;13.406;2024-03-02T07:20:55;37.20;;;27.40;;
71821;SDS011;64096;52.548;13.406;2024-03-02T07:23:24;32.03;;;25.33;;
71821;SDS011;64096;52.548;13.406;2024-03-02T07:25:52;30.00;;;24.75;;
71821;SDS011;64096;52.548;13.406;2024-03-02T07:28:24;32.58;;;25.67;;
71821;SDS011;64096;52.548;13.406;2024-03-02T07:31:03;33.55;;;25.88;;
71821;SDS011;64096;52.548;13.406;2024-03-02T07:33:30;35.53;;;25.23;;
71821;SDS011;64096;52.548;13.406;2024-03-02T07:35:56;28.42;;;23.48;;
71821;SDS011;64096;52.548;13.406;2024-03-02T07:38:24;28.05;;;22.85;;
71821;SDS011;64096;52.548;13.406;2024-03-02T07:40:50;32.25;;;25.23;;
71821;SDS011;64096;52.548;13.406;2024-03-02T07:43:19;30.85;;;24.30;;
71821;SDS011;64096;52.548;13.406;2024-03-02T07:45:45;30.05;;;23.75;;
71821;SDS011;64096;52.548;13.406;2024-03-02T07:48:12;30.95;;;24.20;;
71821;SDS011;64096;52.548;13.406;2024-03-02T07:50:38;33.08;;;25.40;;
71821;SDS011;64096;52.548;13.406;2024-03-02T07:53:07;31.15;;;25.25;;
71821;SDS011;64096;52.548;13.406;2024-03-02T07:55:33;29.90;;;23.50;;
71821;SDS011;64096;52.548;13.406;2024-03-02T07:58:02;29.38;;;23.02;;
71821;SDS011;64096;52.548;13.406;2024-03-02T08:00:28;32.78;;;25.83;;
71821;SDS011;64096;52.548;13.406;2024-03-02T08:02:54;30.88;;;26.05;;
71821;SDS011;64096;52.548;13.406;2024-03-02T08:05:21;29.30;;;24.02;;
71821;SDS011;64096;52.548;13.406;2024-03-02T08:07:47;32.33;;;25.00;;
71821;SDS011;64096;52.548;13.406;2024-03-02T08:10:17;28.88;;;23.35;;
71821;SDS011;64096;52.548;13.406;2024-03-02T08:12:43;28.13;;;23.30;;
71821;SDS011;64096;52.548;13.406;2024-03-02T08:15:09;29.55;;;23.58;;
71821;SDS011;64096;52.548;13.406;2024-03-02T08:17:35;29.67;;;24.50;;
71821;SDS011;64096;52.548;13.406;2024-03-02T08:20:01;32.92;;;25.73;;
71821;SDS011;64096;52.548;13.406;2024-03-02T08:22:27;30.52;;;23.50;;
71821;SDS011;64096;52.548;13.406;2024-03-02T08:24:54;29.50;;;24.00;;
71821;SDS011;64096;52.548;13.406;2024-03-02T08:27:20;29.35;;;24.15;;
71821;SDS011;64096;52.548;13.406;2024-03-02T08:29:46;28.85;;;23.58;;
71821;SDS011;64096;52.548;13.406;2024-03-02T08:32:12;30.98;;;24.00;;
71821;SDS011;64096;52.548;13.406;2024-03-02T08:34:38;32.42;;;25.77;;
71821;SDS011;64096;52.548;13.406;2024-03-02T08:37:04;30.05;;;24.75;;
71821;SDS011;64096;52.548;13.406;2024-03-02T08:39:30;30.23;;;25.05;;
71821;SDS011;64096;52.548;13.406;2024-03-02T08:41:56;33.08;;;27.27;;
71821;SDS011;64096;52.548;13.406;2024-03-02T08:44:22;32.92;;;26.75;;
71821;SDS011;64096;52.548;13.406;2024-03-02T08:46:49;31.40;;;25.25;;
71821;SDS011;64096;52.548;13.406;2024-03-02T08:49:15;33.72;;;26.90;;
71821;SDS011;64096;52.548;13.406;2024-03-02T08:51:41;33.75;;;26.52;;
71821;SDS011;64096;52.548;13.406;2024-03-02T08:54:07;30.88;;;24.77;;
71821;SDS011;64096;52.548;13.406;2024-03-02T08:56:33;29.92;;;23.85;;
71821;SDS011;64096;52.548;13.406;2024-03-02T08:58:59;27.42;;;21.73;;
71821;SDS011;64096;52.548;13.406;2024-03-02T09:01:25;31.60;;;24.25;;
71821;SDS011;64096;52.548;13.406;2024-03-02T09:03:51;30.27;;;23.63;;
71821;SDS011;64096;52.548;13.406;2024-03-02T09:06:17;30.55;;;23.85;;
71821;SDS011;64096;52.548;13.406;2024-03-02T09:08:45;26.70;;;21.67;;
71821;SDS011;64096;52.548;13.406;2024-03-02T09:11:12;29.20;;;22.65;;
71821;SDS011;64096;52.548;13.406;2024-03-02T09:13:38;26.98;;;21.80;;
71821;SDS011;64096;52.548;13.406;2024-03-02T09:16:04;30.13;;;23.73;;
71821;SDS011;64096;52.548;13.406;2024-03-02T09:18:30;30.33;;;23.60;;
71821;SDS011;64096;52.548;13.406;2024-03-02T09:20:56;30.20;;;23.88;;
71821;SDS011;64096;52.548;13.406;2024-03-02T09:23:22;29.48;;;24.00;;
71821;SDS011;64096;52.548;13.406;2024-03-02T09:25:48;33.13;;;24.92;;
71821;SDS011;64096;52.548;13.406;2024-03-02T09:28:15;28.45;;;22.40;;
71821;SDS011;64096;52.548;13.406;2024-03-02T09:30:41;29.98;;;23.02;;
71821;SDS011;64096;52.548;13.406;2024-03-02T09:33:07;29.85;;;22.77;;
71821;SDS011;64096;52.548;13.406;2024-03-02T09:35:33;27.95;;;24.23;;
71821;SDS011;64096;52.548;13.406;2024-03-02T09:37:59;29.27;;;23.80;;
71821;SDS011;64096;52.548;13.406;2024-03-02T09:40:25;29.30;;;23.42;;
71821;SDS011;64096;52.548;13.406;2024-03-02T09:42:52;30.05;;;23.70;;
71821;SDS011;64096;52.548;13.406;2024-03-02T09:45:24;28.85;;;24.17;;
71821;SDS011;64096;52.548;13.406;2024-03-02T09:47:50;29.23;;;23.00;;
71821;SDS011;64096;52.548;13.406;2024-03-02T09:50:16;30.67;;;24.60;;
71821;SDS011;64096;52.548;13.406;2024-03-02T09:52:42;30.48;;;24.08;;
71821;SDS011;64096;52.548;13.406;2024-03-02T09:55:09;28.50;;;23.75;;
71821;SDS011;64096;52.548;13.406;2024-03-02T09:57:35;29.98;;;24.05;;
71821;SDS011;64096;52.548;13.406;2024-03-02T10:00:01;28.67;;;24.08;;
71821;SDS011;64096;52.548;13.406;2024-03-02T10:02:28;27.48;;;22.50;;
71821;SDS011;64096;52.548;13.406;2024-03-02T10:04:54;26.92;;;21.60;;
71821;SDS011;64096;52.548;13.406;2024-03-02T10:07:20;24.98;;;21.30;;
71821;SDS011;64096;52.548;13.406;2024-03-02T10:09:46;28.80;;;22.27;;
71821;SDS011;64096;52.548;13.406;2024-03-02T10:12:14;26.75;;;21.65;;
71821;SDS011;64096;52.548;13.406;2024-03-02T10:14:40;28.05;;;21.52;;
71821;SDS011;64096;52.548;13.406;2024-03-02T10:17:10;25.83;;;20.10;;
71821;SDS011;64096;52.548;13.406;2024-03-02T10:19:38;27.65;;;21.50;;
71821;SDS011;64096;52.548;13.406;2024-03-02T10:22:06;24.42;;;19.90;;
71821;SDS011;64096;52.548;13.406;2024-03-02T10:24:43;22.98;;;19.17;;
71821;SDS011;64096;52.548;13.406;2024-03-02T10:27:22;22.63;;;19.58;;
71821;SDS011;64096;52.548;13.406;2024-03-02T10:29:49;25.88;;;20.58;;
71821;SDS011;64096;52.548;13.406;2024-03-02T10:32:15;23.10;;;18.67;;
71821;SDS011;64096;52.548;13.406;2024-03-02T10:34:42;25.15;;;20.02;;
71821;SDS011;64096;52.548;13.406;2024-03-02T10:37:10;24.75;;;19.50;;
71821;SDS011;64096;52.548;13.406;2024-03-02T10:39:37;22.58;;;18.52;;
71821;SDS011;64096;52.548;13.406;2024-03-02T10:42:06;22.95;;;18.90;;
71821;SDS011;64096;52.548;13.406;2024-03-02T10:44:33;22.85;;;18.20;;
71821;SDS011;64096;52.548;13.406;2024-03-02T10:47:00;22.10;;;17.92;;
71821;SDS011;64096;52.548;13.406;2024-03-02T10:49:29;22.15;;;17.80;;
71821;SDS011;64096;52.548;13.406;2024-03-02T10:51:55;20.23;;;16.58;;
71821;SDS011;64096;52.548;13.406;2024-03-02T10:54:21;20.05;;;15.65;;
71821;SDS011;64096;52.548;13.406;2024-03-02T10:56:53;18.50;;;14.52;;
71821;SDS011;64096;52.548;13.406;2024-03-02T11:01:56;18.75;;;15.20;;
71821;SDS011;64096;52.548;13.406;2024-03-02T11:04:24;20.60;;;16.58;;
71821;SDS011;64096;52.548;13.406;2024-03-02T11:06:51;19.10;;;14.82;;
71821;SDS011;64096;52.548;13.406;2024-03-02T11:09:21;18.38;;;15.43;;
71821;SDS011;64096;52.548;13.406;2024-03-02T11:14:34;16.58;;;13.93;;
71821;SDS011;64096;52.548;13.406;2024-03-02T11:17:03;17.17;;;13.82;;
71821;SDS011;64096;52.548;13.406;2024-03-02T11:19:32;18.60;;;14.60;;
71821;SDS011;64096;52.548;13.406;2024-03-02T11:21:59;18.60;;;14.45;;
71821;SDS011;64096;52.548;13.406;2024-03-02T11:26:53;17.23;;;13.18;;
71821;SDS011;64096;52.548;13.406;2024-03-02T11:32:05;16.73;;;14.23;;
71821;SDS011;64096;52.548;13.406;2024-03-02T11:34:34;17.48;;;13.60;;
71821;SDS011;64096;52.548;13.406;2024-03-02T11:37:01;16.20;;;13.65;;
71821;SDS011;64096;52.548;13.406;2024-03-02T11:39:27;17.05;;;12.77;;
71821;SDS011;64096;52.548;13.406;2024-03-02T11:41:57;17.60;;;14.15;;
71821;SDS011;64096;52.548;13.406;2024-03-02T11:44:26;17.52;;;13.80;;
71821;SDS011;64096;52.548;13.406;2024-03-02T11:47:05;16.52;;;14.18;;
71821;SDS011;64096;52.548;13.406;2024-03-02T11:49:38;17.10;;;13.75;;
71821;SDS011;64096;52.548;13.406;2024-03-02T11:52:05;17.05;;;13.93;;
71821;SDS011;64096;52.548;13.406;2024-03-02T11:54:34;17.25;;;13.85;;
71821;SDS011;64096;52.548;13.406;2024-03-02T11:57:04;19.23;;;13.85;;
71821;SDS011;64096;52.548;13.406;2024-03-02T11:59:30;18.55;;;14.80;;
71821;SDS011;64096;52.548;13.406;2024-03-02T12:01:57;15.65;;;13.68;;
71821;SDS011;64096;52.548;13.406;2024-03-02T12:04:23;16.92;;;13.40;;
71821;SDS011;64096;52.548;13.406;2024-03-02T12:06:56;15.77;;;12.85;;
71821;SDS011;64096;52.548;13.406;2024-03-02T12:09:24;18.02;;;13.88;;
71821;SDS011;64096;52.548;13.406;2024-03-02T12:12:12;17.52;;;13.10;;
71821;SDS011;64096;52.548;13.406;2024-03-02T12:14:49;16.27;;;12.93;;
71821;SDS011;64096;52.548;13.406;2024-03-02T12:17:15;15.20;;;12.25;;
71821;SDS011;64096;52.548;13.406;2024-03-02T12:19:41;16.35;;;13.80;;
71821;SDS011;64096;52.548;13.406;2024-03-02T12:22:07;15.20;;;12.52;;
71821;SDS011;64096;52.548;13.406;2024-03-02T12:24:33;15.18;;;12.18;;
71821;SDS011;64096;52.548;13.406;2024-03-02T12:26:59;15.45;;;12.63;;
71821;SDS011;64096;52.548;13.406;2024-03-02T12:29:25;17.38;;;12.68;;
71821;SDS011;64096;52.548;13.406;2024-03-02T12:31:52;14.77;;;12.27;;
71821;SDS011;64096;52.548;13.406;2024-03-02T12:34:18;15.55;;;13.32;;
71821;SDS011;64096;52.548;13.406;2024-03-02T12:36:47;16.98;;;12.82;;
71821;SDS011;64096;52.548;13.406;2024-03-02T12:39:18;16.25;;;13.25;;
71821;SDS011;64096;52.548;13.406;2024-03-02T12:41:44;18.08;;;14.23;;
71821;SDS011;64096;52.548;13.406;2024-03-02T12:44:11;15.82;;;12.60;;
71821;SDS011;64096;52.548;13.406;2024-03-02T12:46:37;18.60;;;14.68;;
71821;SDS011;64096;52.548;13.406;2024-03-02T12:49:08;18.20;;;14.15;;
71821;SDS011;64096;52.548;13.406;2024-03-02T12:51:38;17.70;;;14.85;;
71821;SDS011;64096;52.548;13.406;2024-03-02T12:54:08;15.38;;;12.50;;
71821;SDS011;64096;52.548;13.406;2024-03-02T12:56:35;17.73;;;14.27;;
71821;SDS011;64096;52.548;13.406;2024-03-02T12:59:02;15.55;;;13.00;;
71821;SDS011;64096;52.548;13.406;2024-03-02T13:01:29;17.27;;;13.50;;
71821;SDS011;64096;52.548;13.406;2024-03-02T13:03:56;16.63;;;13.32;;
71821;SDS011;64096;52.548;13.406;2024-03-02T13:06:23;15.60;;;13.10;;
71821;SDS011;64096;52.548;13.406;2024-03-02T13:08:50;15.98;;;12.95;;
71821;SDS011;64096;52.548;13.406;2024-03-02T13:11:16;14.90;;;11.73;;
71821;SDS011;64096;52.548;13.406;2024-03-02T13:13:42;15.75;;;12.73;;
71821;SDS011;64096;52.548;13.406;2024-03-02T13:16:09;15.43;;;12.30;;
71821;SDS011;64096;52.548;13.406;2024-03-02T13:18:35;14.82;;;12.15;;
71821;SDS011;64096;52.548;13.406;2024-03-02T13:21:02;13.98;;;11.50;;
71821;SDS011;64096;52.548;13.406;2024-03-02T13:23:28;15.90;;;12.60;;
71821;SDS011;64096;52.548;13.406;2024-03-02T13:25:56;15.63;;;13.20;;
71821;SDS011;64096;52.548;13.406;2024-03-02T13:28:23;15.23;;;12.57;;
71821;SDS011;64096;52.548;13.406;2024-03-02T13:30:50;13.25;;;10.45;;
71821;SDS011;64096;52.548;13.406;2024-03-02T13:33:16;14.68;;;11.98;;
71821;SDS011;64096;52.548;13.406;2024-03-02T13:35:47;14.75;;;11.88;;
71821;SDS011;64096;52.548;13.406;2024-03-02T13:38:13;13.80;;;11.77;;
71821;SDS011;64096;52.548;13.406;2024-03-02T13:40:40;14.38;;;11.52;;
71821;SDS011;64096;52.548;13.406;2024-03-02T13:43:06;14.20;;;11.07;;
71821;SDS011;64096;52.548;13.406;2024-03-02T13:45:33;13.25;;;10.75;;
71821;SDS011;64096;52.548;13.406;2024-03-02T13:48:00;13.27;;;10.60;;
71821;SDS011;64096;52.548;13.406;2024-03-02T13:50:28;13.20;;;10.63;;
71821;SDS011;64096;52.548;13.406;2024-03-02T13:52:55;12.43;;;10.02;;
71821;SDS011;64096;52.548;13.406;2024-03-02T13:55:22;13.35;;;10.60;;
71821;SDS011;64096;52.548;13.406;2024-03-02T13:57:48;14.55;;;11.15;;
